Time;durP1;ratioP1;P1;durP2;ratioP2;P2;SDS_P1;SDS_P2;PMS_P1;PMS_P2;Temp;Humidity;BMP_temperature;BMP_pressure;BME280_temperature;BME280_humidity;BME280_pressure;Samples;Min_cycle;Max_cycle;Signal;HPM_P1;HPM_P2
2022/12/22 03:27:32;;;;;;;1.40;1.08;;;8.60;99.90;;;;;;4972569;28;20270;-67
2022/12/22 03:29:59;;;;;;;1.20;1.10;;;8.70;99.90;;;;;;4972378;28;20699;-66
2022/12/22 03:32:27;;;;;;;1.52;1.33;;;8.70;99.90;;;;;;4972071;28;20214;-66
2022/12/22 03:34:54;;;;;;;2.22;1.30;;;8.70;99.90;;;;;;4972475;28;20204;-67
2022/12/22 03:37:20;;;;;;;1.45;1.05;;;8.70;99.90;;;;;;4972074;28;20223;-66
2022/12/22 03:39:47;;;;;;;2.53;1.25;;;8.70;99.90;;;;;;4972272;28;20235;-66
2022/12/22 03:47:43;;;;;;;1.10;0.88;;;8.60;99.90;;;;;;4972229;28;20223;-67
2022/12/22 03:50:10;;;;;;;2.95;1.42;;;8.60;99.90;;;;;;4972134;28;20226;-67
2022/12/22 03:52:37;;;;;;;1.30;1.20;;;8.60;99.90;;;;;;4972133;28;20687;-67
2022/12/22 03:55:04;;;;;;;1.10;1.00;;;8.60;99.90;;;;;;4972181;28;20204;-67
2022/12/22 03:57:31;;;;;;;1.15;1.05;;;8.60;99.90;;;;;;4971695;28;20234;-66
2022/12/22 03:59:58;;;;;;;1.20;1.10;;;8.60;99.90;;;;;;4971908;28;20223;-68
2022/12/22 04:02:25;;;;;;;1.20;0.90;;;8.60;99.90;;;;;;4971516;28;20236;-67
2022/12/22 04:04:53;;;;;;;1.10;1.00;;;8.60;99.90;;;;;;4972204;28;20207;-67
2022/12/22 04:07:19;;;;;;;1.60;1.15;;;8.70;99.90;;;;;;4971855;28;20234;-67
2022/12/22 04:15:10;;;;;;;1.30;1.10;;;8.70;99.90;;;;;;4971830;28;20603;-67
2022/12/22 04:17:37;;;;;;;1.50;0.90;;;8.80;99.90;;;;;;4972270;28;20223;-67
2022/12/22 04:20:07;;;;;;;1.95;1.45;;;8.80;99.90;;;;;;4971872;28;20234;-67
2022/12/22 04:22:33;;;;;;;1.17;0.93;;;8.80;99.90;;;;;;4971787;28;20214;-67
2022/12/22 04:25:00;;;;;;;1.33;1.08;;;8.80;99.90;;;;;;4971943;28;20270;-66
2022/12/22 04:27:27;;;;;;;2.05;1.17;;;8.80;99.90;;;;;;4971719;28;20943;-67
2022/12/22 04:29:53;;;;;;;1.10;0.75;;;8.90;99.90;;;;;;4971774;28;20691;-66
2022/12/22 04:32:20;;;;;;;1.40;1.20;;;8.90;99.90;;;;;;4971108;28;20584;-67
2022/12/22 04:34:47;;;;;;;1.05;0.82;;;8.90;99.90;;;;;;4972003;28;20207;-67
2022/12/22 04:37:15;;;;;;;2.25;1.05;;;8.90;99.90;;;;;;4971673;28;20311;-67
2022/12/22 04:39:41;;;;;;;1.05;0.80;;;9.00;99.90;;;;;;4961025;28;20226;-67
2022/12/22 04:42:08;;;;;;;1.05;0.95;;;9.00;99.90;;;;;;4960378;28;20208;-66
2022/12/22 04:44:35;;;;;;;0.95;0.80;;;9.00;99.90;;;;;;4961945;28;20203;-66
2022/12/22 04:47:02;;;;;;;3.80;0.93;;;9.00;99.90;;;;;;4961052;28;20739;-67
2022/12/22 04:49:28;;;;;;;1.58;0.90;;;9.00;99.90;;;;;;4959507;28;20204;-66
2022/12/22 04:51:55;;;;;;;2.58;1.13;;;9.10;99.90;;;;;;4958365;28;20193;-66
2022/12/22 04:54:23;;;;;;;1.98;1.10;;;9.10;99.90;;;;;;4951641;28;20208;-66
2022/12/22 04:56:50;;;;;;;0.80;0.75;;;9.20;99.90;;;;;;4970299;28;20578;-67
2022/12/22 04:59:17;;;;;;;0.90;0.80;;;9.20;99.90;;;;;;4970055;28;20637;-67
2022/12/22 05:01:44;;;;;;;1.23;1.00;;;9.20;99.90;;;;;;4970020;28;20204;-66
2022/12/22 05:04:10;;;;;;;0.85;0.80;;;9.20;99.90;;;;;;4956685;28;20236;-66
2022/12/22 05:06:37;;;;;;;2.67;1.10;;;9.20;99.90;;;;;;4951725;28;20207;-66
2022/12/22 05:09:04;;;;;;;1.77;0.90;;;9.20;99.90;;;;;;4966536;28;20723;-66
2022/12/22 05:11:32;;;;;;;1.10;0.80;;;9.30;99.90;;;;;;4961259;28;20587;-66
2022/12/22 05:13:59;;;;;;;1.30;1.20;;;9.30;99.90;;;;;;4964719;28;20193;-66
2022/12/22 05:16:25;;;;;;;3.05;0.80;;;9.40;99.90;;;;;;4965311;28;20694;-66
2022/12/22 05:18:52;;;;;;;0.93;0.82;;;9.30;99.90;;;;;;4963778;28;20600;-67
2022/12/22 05:21:21;;;;;;;3.70;1.48;;;9.40;99.90;;;;;;4964510;28;20206;-66
2022/12/22 05:23:48;;;;;;;0.90;0.80;;;9.40;99.90;;;;;;4965616;28;20747;-66
2022/12/22 05:26:16;;;;;;;1.20;0.85;;;9.40;99.90;;;;;;4963446;28;20207;-66
2022/12/22 05:28:46;;;;;;;1.15;0.90;;;9.40;99.90;;;;;;4971082;28;20227;-66
2022/12/22 05:31:16;;;;;;;2.55;1.17;;;9.40;99.90;;;;;;4973245;28;20275;-66
2022/12/22 05:33:43;;;;;;;1.00;0.88;;;9.40;99.90;;;;;;4974149;28;20207;-66
2022/12/22 05:36:10;;;;;;;2.30;0.80;;;9.40;99.90;;;;;;4973168;28;20204;-66
2022/12/22 05:38:37;;;;;;;1.20;0.90;;;9.40;99.90;;;;;;4974412;28;20230;-66
2022/12/22 05:41:04;;;;;;;1.80;1.40;;;9.40;99.90;;;;;;4973915;28;20235;-66
2022/12/22 05:43:30;;;;;;;4.28;1.10;;;9.40;99.90;;;;;;4974204;28;20222;-65
2022/12/22 05:46:01;;;;;;;1.00;0.90;;;9.40;99.90;;;;;;4974400;28;20203;-66
2022/12/22 05:48:28;;;;;;;1.00;0.90;;;9.40;99.90;;;;;;4974097;28;20242;-66
2022/12/22 05:50:55;;;;;;;3.50;1.05;;;9.40;99.90;;;;;;4973630;28;20207;-66
2022/12/22 05:53:22;;;;;;;6.70;1.40;;;9.40;99.90;;;;;;4973989;28;20207;-66
2022/12/22 05:55:49;;;;;;;1.65;1.23;;;9.40;99.90;;;;;;4974223;28;21019;-66
2022/12/22 05:58:15;;;;;;;1.55;1.13;;;9.30;99.90;;;;;;4973945;28;20602;-65
2022/12/22 06:00:42;;;;;;;1.65;1.48;;;9.30;99.90;;;;;;4973625;28;20239;-65
2022/12/22 06:03:10;;;;;;;2.88;1.15;;;9.30;99.90;;;;;;4973927;28;20222;-65
2022/12/22 06:05:37;;;;;;;1.40;1.13;;;9.20;99.90;;;;;;4974147;28;20211;-65
2022/12/22 06:08:04;;;;;;;3.00;0.95;;;9.20;99.90;;;;;;4973780;28;20542;-65
2022/12/22 06:10:30;;;;;;;1.42;1.00;;;9.20;99.90;;;;;;4973418;28;20204;-65
2022/12/22 06:12:57;;;;;;;2.33;0.95;;;9.10;99.90;;;;;;4973899;28;20204;-66
2022/12/22 06:15:24;;;;;;;1.42;1.08;;;9.10;99.90;;;;;;4973768;28;20210;-66
2022/12/22 06:17:50;;;;;;;4.45;1.23;;;9.00;99.90;;;;;;4973576;28;20219;-66
2022/12/22 06:20:19;;;;;;;2.00;1.02;;;9.00;99.90;;;;;;4973256;28;20222;-67
2022/12/22 06:22:45;;;;;;;2.95;1.45;;;9.00;99.90;;;;;;4972829;28;20710;-66
2022/12/22 06:25:12;;;;;;;2.15;1.20;;;8.90;99.90;;;;;;5046029;23;20642;-69
2022/12/22 06:27:39;;;;;;;1.42;1.20;;;8.90;99.90;;;;;;4997469;28;20715;-69
2022/12/22 06:30:07;;;;;;;2.20;1.25;;;8.90;99.90;;;;;;4992650;28;20574;-69
2022/12/22 06:32:36;;;;;;;4.70;1.65;;;8.90;99.90;;;;;;4992084;28;20217;-69
2022/12/22 06:35:03;;;;;;;2.95;1.50;;;9.00;99.90;;;;;;4992870;28;20211;-69
2022/12/22 06:37:31;;;;;;;1.98;1.30;;;9.10;99.90;;;;;;4992616;28;20609;-69
2022/12/22 06:39:58;;;;;;;2.30;1.40;;;9.30;99.90;;;;;;4992524;28;20237;-69
2022/12/22 06:45:09;;;;;;;2.15;1.10;;;9.40;99.90;;;;;;4992720;28;20261;-69
2022/12/22 06:47:36;;;;;;;3.28;1.20;;;9.30;99.90;;;;;;4992383;28;20226;-69
2022/12/22 06:50:03;;;;;;;2.58;1.20;;;9.40;99.90;;;;;;4992537;28;20206;-69
2022/12/22 06:52:31;;;;;;;3.83;1.73;;;9.40;99.90;;;;;;4991888;28;20222;-69
2022/12/22 06:54:58;;;;;;;2.78;1.13;;;9.40;99.90;;;;;;4992421;28;20622;-69
2022/12/22 06:57:24;;;;;;;3.35;1.40;;;9.50;99.90;;;;;;4991977;28;20230;-70
2022/12/22 06:59:51;;;;;;;3.85;1.80;;;9.60;99.90;;;;;;4992209;28;20229;-71
2022/12/22 07:02:18;;;;;;;3.50;1.52;;;9.60;99.90;;;;;;4991605;28;20199;-70
2022/12/22 07:04:45;;;;;;;2.38;1.15;;;9.60;99.90;;;;;;4992168;28;20206;-70
2022/12/22 07:07:12;;;;;;;3.92;1.33;;;9.60;99.90;;;;;;4975610;28;20728;-71
2022/12/22 07:09:40;;;;;;;2.78;1.40;;;9.70;99.90;;;;;;4953308;29;20211;-71
2022/12/22 07:12:07;;;;;;;2.42;1.30;;;9.70;99.90;;;;;;4951649;29;20211;-71
2022/12/22 07:14:33;;;;;;;3.90;1.27;;;9.70;99.90;;;;;;4953534;28;20213;-74
2022/12/22 07:17:00;;;;;;;5.82;1.75;;;9.70;99.90;;;;;;4952743;28;20204;-71
2022/12/22 07:19:27;;;;;;;4.35;1.60;;;9.70;99.90;;;;;;4953200;29;20224;-71
2022/12/22 07:21:53;;;;;;;4.68;1.50;;;9.70;99.90;;;;;;4952663;29;20215;-71
2022/12/22 07:24:23;;;;;;;4.30;1.50;;;9.70;99.90;;;;;;4953019;29;20223;-71
2022/12/22 07:26:52;;;;;;;3.35;1.80;;;9.70;99.90;;;;;;4952902;29;20240;-71
2022/12/22 07:29:18;;;;;;;2.00;1.35;;;9.80;99.90;;;;;;4952918;29;20273;-71
2022/12/22 07:31:45;;;;;;;3.47;1.30;;;9.80;99.90;;;;;;4952655;29;20296;-71
2022/12/22 07:34:12;;;;;;;1.67;1.30;;;9.80;99.90;;;;;;4952309;28;20208;-71
2022/12/22 07:36:39;;;;;;;1.85;1.25;;;9.80;99.90;;;;;;4952857;29;20212;-71
2022/12/22 07:39:06;;;;;;;3.47;1.30;;;9.80;99.90;;;;;;4952700;29;20224;-71
2022/12/22 07:44:18;;;;;;;2.85;1.75;;;10.00;99.90;;;;;;4952779;29;20255;-70
2022/12/22 07:46:45;;;;;;;4.10;2.22;;;9.90;99.90;;;;;;4952718;29;20208;-71
2022/12/22 07:52:08;;;;;;;2.38;1.20;;;9.80;99.90;;;;;;4927675;29;20209;-70
2022/12/22 07:54:35;;;;;;;2.50;1.63;;;9.70;99.90;;;;;;4953059;28;20335;-70
2022/12/22 07:57:02;;;;;;;2.15;1.15;;;9.70;99.90;;;;;;4988686;28;20205;-70
2022/12/22 07:59:30;;;;;;;3.25;1.27;;;9.50;99.90;;;;;;4966641;28;20703;-70
2022/12/22 08:01:56;;;;;;;2.50;1.05;;;9.50;99.90;;;;;;4957173;28;20299;-69
2022/12/22 08:04:23;;;;;;;3.88;2.08;;;9.40;99.90;;;;;;4979863;28;20211;-70
2022/12/22 08:06:50;;;;;;;2.97;1.13;;;9.40;99.90;;;;;;4974735;28;20588;-70
2022/12/22 08:09:20;;;;;;;2.63;1.40;;;9.30;99.90;;;;;;4970783;28;20211;-70
2022/12/22 08:11:47;;;;;;;3.20;1.73;;;9.30;99.90;;;;;;4969368;28;20212;-70
2022/12/22 08:14:14;;;;;;;4.05;1.25;;;9.30;99.90;;;;;;4989634;28;20265;-70
2022/12/22 08:16:42;;;;;;;1.60;1.10;;;9.30;99.90;;;;;;4987690;28;20213;-69
2022/12/22 08:19:09;;;;;;;3.60;1.20;;;9.30;99.90;;;;;;4990140;28;20234;-70
2022/12/22 08:21:36;;;;;;;2.13;1.23;;;9.20;99.90;;;;;;4990052;28;20219;-70
2022/12/22 08:24:02;;;;;;;4.75;1.48;;;9.30;99.90;;;;;;4990505;28;20297;-70
2022/12/22 08:26:33;;;;;;;5.18;1.60;;;9.40;99.90;;;;;;4990341;28;20199;-69
2022/12/22 08:29:04;;;;;;;3.72;1.52;;;9.70;99.90;;;;;;4990612;28;20223;-69
2022/12/22 08:31:32;;;;;;;3.10;1.50;;;9.90;99.90;;;;;;4989980;28;20202;-69
2022/12/22 08:34:03;;;;;;;2.92;1.30;;;9.90;99.90;;;;;;4990361;28;20206;-70
2022/12/22 08:36:32;;;;;;;3.30;1.70;;;9.90;99.90;;;;;;4982309;28;20576;-70
2022/12/22 08:39:01;;;;;;;2.30;1.20;;;9.90;99.90;;;;;;4971058;28;20228;-70
2022/12/22 08:44:13;;;;;;;2.17;1.45;;;9.80;99.90;;;;;;4971639;28;20301;-70
2022/12/22 08:46:40;;;;;;;3.95;1.63;;;9.70;99.90;;;;;;4974523;28;20206;-69
2022/12/22 08:49:08;;;;;;;3.67;1.45;;;9.70;99.90;;;;;;4974400;28;20621;-69
2022/12/22 08:51:35;;;;;;;3.50;1.50;;;9.90;99.90;;;;;;4974335;28;20200;-70
2022/12/22 08:54:02;;;;;;;2.28;1.10;;;10.00;99.90;;;;;;4974293;28;20234;-70
2022/12/22 08:56:30;;;;;;;2.65;1.50;;;10.10;99.90;;;;;;4974908;28;20208;-70
2022/12/22 08:58:56;;;;;;;2.58;1.20;;;10.10;99.90;;;;;;4974263;28;20326;-69
2022/12/22 09:01:23;;;;;;;2.83;1.45;;;10.00;99.90;;;;;;4973799;28;20242;-69
2022/12/22 09:03:51;;;;;;;1.65;1.20;;;10.00;99.90;;;;;;4974307;28;20202;-70
2022/12/22 09:06:20;;;;;;;3.13;1.35;;;10.10;99.90;;;;;;4979239;28;20585;-69
2022/12/22 09:08:47;;;;;;;3.00;1.20;;;10.20;99.90;;;;;;4974280;28;20312;-70
2022/12/22 09:11:14;;;;;;;5.00;1.15;;;10.30;99.90;;;;;;4972757;28;20200;-70
2022/12/22 09:13:41;;;;;;;4.63;1.50;;;10.60;99.90;;;;;;4974072;28;20203;-70
2022/12/22 09:16:09;;;;;;;2.03;1.50;;;10.90;99.90;;;;;;4974052;28;20208;-70
2022/12/22 09:18:36;;;;;;;2.92;1.20;;;10.90;99.90;;;;;;4973622;28;20227;-70
2022/12/22 09:21:03;;;;;;;1.77;0.98;;;10.70;99.90;;;;;;4973095;28;20231;-70
2022/12/22 09:23:32;;;;;;;3.17;1.45;;;10.50;99.90;;;;;;4973722;28;20199;-70
2022/12/22 09:25:58;;;;;;;3.97;1.98;;;10.20;99.90;;;;;;4973190;28;20204;-70
2022/12/22 09:28:25;;;;;;;2.83;1.40;;;10.00;99.90;;;;;;4973595;28;20235;-71
2022/12/22 09:30:53;;;;;;;4.85;1.80;;;9.80;99.90;;;;;;4972826;28;20200;-69
2022/12/22 09:33:19;;;;;;;3.28;1.55;;;9.60;99.90;;;;;;4972749;28;20207;-69
2022/12/22 09:35:46;;;;;;;3.80;1.77;;;9.50;99.90;;;;;;4973564;28;20577;-69
2022/12/22 09:38:13;;;;;;;4.70;1.65;;;9.50;99.90;;;;;;4973455;28;20227;-70
2022/12/22 09:40:41;;;;;;;5.82;1.48;;;9.40;99.90;;;;;;4971206;28;20227;-69
2022/12/22 09:43:12;;;;;;;2.00;1.13;;;9.40;99.90;;;;;;4979911;28;20208;-70
2022/12/22 09:45:39;;;;;;;2.38;1.55;;;9.40;99.90;;;;;;4972535;28;20705;-70
2022/12/22 09:48:10;;;;;;;3.38;1.20;;;9.40;99.90;;;;;;4971703;28;20243;-69
2022/12/22 09:50:39;;;;;;;2.17;1.20;;;9.30;99.90;;;;;;4972613;28;20200;-69
2022/12/22 09:53:12;;;;;;;1.60;1.15;;;9.30;99.90;;;;;;4972784;28;20204;-70
2022/12/22 09:55:43;;;;;;;2.40;1.50;;;9.20;99.90;;;;;;4971433;28;20211;-69
2022/12/22 09:58:21;;;;;;;2.97;1.80;;;9.20;99.90;;;;;;4972482;28;20235;-70
2022/12/22 10:00:52;;;;;;;3.30;1.30;;;9.20;99.90;;;;;;4971023;28;20223;-70
2022/12/22 10:03:32;;;;;;;6.88;1.33;;;9.20;99.90;;;;;;4972578;28;20300;-69
2022/12/22 10:06:09;;;;;;;1.30;1.20;;;9.20;99.90;;;;;;4971586;28;20216;-69
2022/12/22 10:08:39;;;;;;;2.05;1.38;;;9.20;99.90;;;;;;4971385;28;20792;-69
2022/12/22 10:11:12;;;;;;;1.60;1.10;;;9.20;99.90;;;;;;4970715;28;20295;-69
2022/12/22 10:13:38;;;;;;;1.48;0.95;;;9.20;99.90;;;;;;4971693;28;20212;-68
2022/12/22 10:16:17;;;;;;;2.45;1.35;;;9.20;99.90;;;;;;4971591;28;20215;-70
2022/12/22 10:18:55;;;;;;;4.45;1.70;;;9.20;99.90;;;;;;4970921;28;20238;-70
2022/12/22 10:21:23;;;;;;;7.57;2.38;;;9.20;99.90;;;;;;4971194;28;20235;-70
2022/12/22 10:23:50;;;;;;;3.75;1.02;;;9.40;99.90;;;;;;4971045;28;20212;-70
2022/12/22 10:26:22;;;;;;;6.18;1.55;;;9.40;99.90;;;;;;4971608;28;20203;-69
2022/12/22 10:28:51;;;;;;;1.55;1.42;;;9.50;99.90;;;;;;4971160;28;20254;-70
2022/12/22 10:31:21;;;;;;;5.93;1.15;;;9.50;99.90;;;;;;4971118;28;20208;-70
2022/12/22 10:33:50;;;;;;;1.55;1.13;;;9.60;99.90;;;;;;4969825;28;20211;-69
2022/12/22 10:36:23;;;;;;;3.15;1.30;;;9.60;99.90;;;;;;4971841;28;20263;-69
2022/12/22 10:38:57;;;;;;;1.20;1.00;;;9.60;99.90;;;;;;4972297;28;20237;-69
2022/12/22 10:41:27;;;;;;;3.55;1.25;;;9.60;99.90;;;;;;4971432;28;20239;-70
2022/12/22 10:43:57;;;;;;;1.90;1.10;;;9.70;99.90;;;;;;4972003;28;20688;-69
2022/12/22 10:46:33;;;;;;;4.53;1.20;;;9.60;99.90;;;;;;4971819;28;20208;-70
2022/12/22 10:49:21;;;;;;;2.15;1.42;;;9.70;99.90;;;;;;4971907;28;20629;-70
2022/12/22 10:51:51;;;;;;;1.70;1.33;;;9.70;99.90;;;;;;4971373;28;20211;-70
2022/12/22 10:54:28;;;;;;;1.52;1.15;;;9.70;99.90;;;;;;4971498;28;20202;-69
2022/12/22 10:57:29;;;;;;;3.67;1.13;;;9.60;99.90;;;;;;4970759;28;20207;-70
2022/12/22 10:59:58;;;;;;;2.35;0.98;;;9.60;99.90;;;;;;4971399;28;20203;-69
2022/12/22 11:02:34;;;;;;;2.97;1.15;;;9.60;99.90;;;;;;4971311;28;20224;-70
2022/12/22 11:05:04;;;;;;;1.30;1.00;;;9.60;99.90;;;;;;4972017;28;20211;-70
2022/12/22 11:07:33;;;;;;;2.53;1.20;;;9.60;99.90;;;;;;4972224;28;20231;-70
2022/12/22 11:10:00;;;;;;;1.00;0.80;;;9.70;99.90;;;;;;4971788;28;20209;-69
2022/12/22 11:12:36;;;;;;;2.60;1.60;;;9.80;99.90;;;;;;4971803;28;20223;-69
2022/12/22 11:15:10;;;;;;;1.42;1.08;;;10.00;99.90;;;;;;4972070;28;20210;-70
2022/12/22 11:17:45;;;;;;;1.50;1.00;;;10.30;99.90;;;;;;4972531;28;20223;-70
2022/12/22 11:20:44;;;;;;;2.85;0.93;;;11.10;99.90;;;;;;4972425;28;20199;-69
2022/12/22 11:23:19;;;;;;;1.98;1.17;;;11.60;99.90;;;;;;4958403;28;20210;-70
2022/12/22 11:25:57;;;;;;;1.83;1.20;;;12.00;99.90;;;;;;4972911;28;20204;-70
2022/12/22 11:28:39;;;;;;;1.55;1.23;;;12.40;99.90;;;;;;4972399;28;20319;-70
2022/12/22 11:31:22;;;;;;;2.00;1.13;;;12.90;99.90;;;;;;4971123;28;20211;-69
2022/12/22 11:34:01;;;;;;;2.45;1.27;;;12.90;99.90;;;;;;4971816;28;20222;-70
2022/12/22 11:36:38;;;;;;;1.30;1.00;;;12.70;99.90;;;;;;4971889;28;20204;-70
2022/12/22 11:39:08;;;;;;;0.95;0.70;;;12.40;99.90;;;;;;4971463;28;20643;-70
2022/12/22 11:41:52;;;;;;;1.52;0.98;;;12.40;99.90;;;;;;4958801;28;20221;-70
2022/12/22 11:44:47;;;;;;;1.27;1.13;;;12.40;99.90;;;;;;4952908;28;20591;-69
2022/12/22 11:47:25;;;;;;;2.80;1.23;;;12.30;99.90;;;;;;4965271;28;20231;-69
2022/12/22 11:50:06;;;;;;;2.10;1.05;;;12.00;99.90;;;;;;4971426;28;20235;-69
2022/12/22 11:52:46;;;;;;;5.15;1.25;;;11.80;99.90;;;;;;4971245;28;20206;-70
2022/12/22 11:55:20;;;;;;;1.33;0.95;;;12.30;99.90;;;;;;4971327;28;20204;-70
2022/12/22 11:57:58;;;;;;;1.63;0.90;;;12.50;99.90;;;;;;4971303;28;20778;-70
2022/12/22 12:00:29;;;;;;;1.10;1.00;;;12.70;99.90;;;;;;4971000;28;20614;-69
2022/12/22 12:03:23;;;;;;;1.27;0.80;;;12.60;99.90;;;;;;4971352;28;20211;-69
2022/12/22 12:06:03;;;;;;;2.00;0.93;;;12.30;99.90;;;;;;4970982;28;20630;-69
2022/12/22 12:08:46;;;;;;;2.70;1.25;;;12.50;99.90;;;;;;4971812;28;20224;-70
2022/12/22 12:11:21;;;;;;;1.58;0.98;;;13.00;99.90;;;;;;4971107;28;20212;-69
2022/12/22 12:13:59;;;;;;;2.75;1.02;;;13.20;99.90;;;;;;4971289;28;20207;-69
2022/12/22 12:16:38;;;;;;;1.85;1.00;;;13.30;99.90;;;;;;4971392;28;20218;-69
2022/12/22 12:19:34;;;;;;;1.20;1.00;;;13.50;99.90;;;;;;4969853;28;20239;-70
2022/12/22 12:22:04;;;;;;;1.83;0.80;;;13.50;99.90;;;;;;4942449;28;20226;-69
2022/12/22 12:24:49;;;;;;;1.80;1.20;;;13.30;99.90;;;;;;4974597;28;20223;-70
2022/12/22 12:27:31;;;;;;;2.85;1.23;;;13.10;99.90;;;;;;4974228;28;20229;-70
2022/12/22 12:30:03;;;;;;;1.40;1.00;;;13.00;99.90;;;;;;4974111;28;20212;-69
2022/12/22 12:32:37;;;;;;;1.20;1.02;;;13.00;99.90;;;;;;4973561;28;20652;-69
2022/12/22 12:35:15;;;;;;;1.20;0.80;;;13.10;99.90;;;;;;4974661;28;20204;-69
2022/12/22 12:37:44;;;;;;;2.78;1.20;;;12.90;99.90;;;;;;4974513;28;20699;-69
2022/12/22 12:40:27;;;;;;;1.90;0.90;;;12.50;99.90;;;;;;4974185;28;20208;-70
2022/12/22 12:42:55;;;;;;;0.82;0.70;;;12.20;99.90;;;;;;4988603;28;20223;-69
2022/12/22 12:45:38;;;;;;;1.27;0.80;;;12.20;99.90;;;;;;4978455;28;20200;-69
2022/12/22 12:48:38;;;;;;;1.40;1.10;;;12.10;99.90;;;;;;4992428;28;20598;-70
2022/12/22 12:51:43;;;;;;;0.80;0.70;;;11.90;99.90;;;;;;4992791;28;20389;-69
2022/12/22 12:54:36;;;;;;;2.47;0.85;;;11.60;99.90;;;;;;4994060;28;20629;-70
2022/12/22 12:57:25;;;;;;;1.13;0.90;;;11.40;99.90;;;;;;4974665;28;20343;-70
2022/12/22 12:59:53;;;;;;;1.67;1.10;;;11.40;99.90;;;;;;4972200;28;20211;-70
2022/12/22 13:02:39;;;;;;;0.80;0.70;;;11.30;99.90;;;;;;4973624;28;20241;-70
2022/12/22 13:05:35;;;;;;;1.48;0.80;;;11.30;99.90;;;;;;4975337;28;20208;-70
2022/12/22 13:08:19;;;;;;;0.80;0.80;;;11.30;99.90;;;;;;4974234;28;20224;-69
2022/12/22 13:11:04;;;;;;;1.73;1.20;;;11.20;99.90;;;;;;4974125;28;20208;-70
2022/12/22 13:13:47;;;;;;;1.30;1.10;;;11.10;99.90;;;;;;4974241;28;20209;-70
2022/12/22 13:16:32;;;;;;;1.48;0.90;;;11.10;99.90;;;;;;4954923;29;20208;-70
2022/12/22 13:19:02;;;;;;;1.83;1.00;;;11.10;99.90;;;;;;4989363;28;20311;-70
2022/12/22 13:21:37;;;;;;;1.77;0.90;;;11.30;99.90;;;;;;4995213;28;20232;-71
2022/12/22 13:24:13;;;;;;;2.22;1.00;;;11.40;99.90;;;;;;4995487;28;20198;-69
2022/12/22 13:26:43;;;;;;;1.42;1.00;;;11.40;99.90;;;;;;4982698;28;20932;-69
2022/12/22 13:29:19;;;;;;;2.20;1.00;;;11.40;99.90;;;;;;4975506;28;20247;-70
2022/12/22 13:31:48;;;;;;;1.73;1.00;;;11.50;99.90;;;;;;4973046;28;20215;-69
2022/12/22 13:34:39;;;;;;;1.00;0.90;;;11.60;99.90;;;;;;4975411;28;20222;-70
2022/12/22 13:37:16;;;;;;;0.90;0.77;;;11.60;99.90;;;;;;4985473;28;20203;-69
2022/12/22 13:39:58;;;;;;;1.45;0.80;;;11.50;99.90;;;;;;4993147;28;20206;-69
2022/12/22 13:42:26;;;;;;;1.17;0.80;;;11.50;99.90;;;;;;4977222;28;20223;-69
2022/12/22 13:44:54;;;;;;;1.25;0.93;;;11.70;99.90;;;;;;4992892;28;20898;-69
2022/12/22 13:47:20;;;;;;;1.98;0.90;;;11.80;99.90;;;;;;4992726;28;20278;-70
2022/12/22 13:49:48;;;;;;;1.13;0.80;;;11.90;99.90;;;;;;4993148;28;20218;-70
2022/12/22 13:52:16;;;;;;;1.38;1.27;;;11.70;99.90;;;;;;4992081;28;20699;-69
2022/12/22 13:54:45;;;;;;;1.77;1.25;;;11.60;99.90;;;;;;4993239;28;20203;-69
2022/12/22 13:57:16;;;;;;;4.15;1.45;;;11.50;99.90;;;;;;4992869;28;20224;-69
2022/12/22 13:59:47;;;;;;;3.60;1.40;;;11.50;99.90;;;;;;4992570;28;20214;-70
2022/12/22 14:02:17;;;;;;;1.55;1.20;;;11.40;99.90;;;;;;4992575;28;20729;-69
2022/12/22 14:05:01;;;;;;;3.28;1.15;;;11.40;99.90;;;;;;4992568;28;20586;-70
2022/12/22 14:07:28;;;;;;;1.60;1.50;;;11.40;99.90;;;;;;4992502;28;20238;-70
2022/12/22 14:09:56;;;;;;;2.53;1.00;;;11.40;99.90;;;;;;4992903;28;20214;-69
2022/12/22 14:12:25;;;;;;;4.28;1.50;;;11.30;99.90;;;;;;4991948;28;20713;-69
2022/12/22 14:14:54;;;;;;;1.75;1.27;;;11.30;99.90;;;;;;4992582;28;20727;-70
2022/12/22 14:17:23;;;;;;;2.95;1.27;;;11.20;99.90;;;;;;4992158;28;20322;-69
2022/12/22 14:19:52;;;;;;;2.17;1.17;;;11.20;99.90;;;;;;4992819;28;20208;-69
2022/12/22 14:22:22;;;;;;;3.00;1.25;;;11.10;99.90;;;;;;4991644;28;20223;-69
2022/12/22 14:24:53;;;;;;;2.38;1.20;;;10.90;99.90;;;;;;4976513;28;20200;-70
2022/12/22 14:27:29;;;;;;;2.05;1.00;;;11.00;99.90;;;;;;4972760;28;20223;-69
2022/12/22 14:29:59;;;;;;;3.45;1.42;;;10.90;99.90;;;;;;4971989;28;20215;-69
2022/12/22 14:32:36;;;;;;;3.35;1.40;;;10.80;99.90;;;;;;4972431;28;20218;-70
2022/12/22 14:35:03;;;;;;;1.58;1.30;;;10.80;99.90;;;;;;4973101;28;20207;-69
2022/12/22 14:37:30;;;;;;;1.70;1.20;;;10.90;99.90;;;;;;4972424;28;20215;-70
2022/12/22 14:39:57;;;;;;;5.85;1.60;;;10.80;99.90;;;;;;4972721;28;20204;-70
2022/12/22 14:42:24;;;;;;;1.45;1.27;;;10.80;99.90;;;;;;4970979;28;20220;-70
2022/12/22 14:44:50;;;;;;;3.05;1.85;;;10.70;99.90;;;;;;4972650;28;20211;-69
2022/12/22 14:47:27;;;;;;;1.48;1.13;;;10.70;99.90;;;;;;4972382;28;20704;-70
2022/12/22 14:49:57;;;;;;;3.35;3.05;;;10.50;99.90;;;;;;4972792;28;20223;-69
2022/12/22 14:52:34;;;;;;;2.85;1.65;;;10.50;99.90;;;;;;4971825;28;20204;-70
2022/12/22 14:55:02;;;;;;;2.00;1.80;;;10.40;99.90;;;;;;4970272;28;20207;-70
2022/12/22 14:57:35;;;;;;;3.40;1.35;;;10.40;99.90;;;;;;4970194;28;20226;-70
2022/12/22 15:00:06;;;;;;;1.83;1.30;;;10.40;99.90;;;;;;4971288;28;20236;-69
2022/12/22 15:02:37;;;;;;;2.97;1.45;;;10.30;99.90;;;;;;4970811;28;20228;-70
2022/12/22 15:05:23;;;;;;;5.13;2.03;;;10.30;99.90;;;;;;4973579;28;20612;-70
2022/12/22 15:07:51;;;;;;;5.10;1.65;;;10.20;99.90;;;;;;4971403;28;20230;-70
2022/12/22 15:10:18;;;;;;;5.88;1.60;;;10.20;99.90;;;;;;4970621;28;20222;-70
2022/12/22 15:12:47;;;;;;;3.70;1.67;;;10.00;99.90;;;;;;4970954;28;20219;-70
2022/12/22 15:15:16;;;;;;;2.95;1.50;;;10.00;99.90;;;;;;4971411;28;20218;-70
2022/12/22 15:17:46;;;;;;;2.65;1.75;;;9.90;99.90;;;;;;4972523;28;20738;-70
2022/12/22 15:20:17;;;;;;;1.33;1.10;;;9.90;99.90;;;;;;4971789;28;20212;-69
2022/12/22 15:22:44;;;;;;;3.90;1.33;;;9.90;99.90;;;;;;4971807;28;20233;-70
2022/12/22 15:25:16;;;;;;;3.67;1.25;;;9.80;99.90;;;;;;4972375;28;20204;-70
2022/12/22 15:27:43;;;;;;;3.63;1.38;;;9.80;99.90;;;;;;4972006;28;20310;-70
2022/12/22 15:30:12;;;;;;;2.95;1.73;;;9.80;99.90;;;;;;4967848;28;20211;-70
2022/12/22 15:32:39;;;;;;;3.40;1.40;;;9.80;99.90;;;;;;4971127;28;20271;-70
2022/12/22 15:35:16;;;;;;;2.70;1.17;;;9.70;99.90;;;;;;4972033;28;20196;-69
2022/12/22 15:37:43;;;;;;;3.63;1.83;;;9.70;99.90;;;;;;4969184;28;20241;-70
2022/12/22 15:40:15;;;;;;;2.05;1.27;;;9.60;99.90;;;;;;4971733;28;20586;-69
2022/12/22 15:42:42;;;;;;;4.72;1.58;;;9.60;99.90;;;;;;4970067;28;20605;-69
2022/12/22 15:45:09;;;;;;;3.53;1.50;;;9.60;99.90;;;;;;4971199;28;20211;-70
2022/12/22 15:47:36;;;;;;;2.33;1.30;;;9.60;99.90;;;;;;4971292;28;20718;-69
2022/12/22 15:50:03;;;;;;;1.85;1.63;;;9.50;99.90;;;;;;4971476;28;20207;-70
2022/12/22 15:52:32;;;;;;;1.65;1.15;;;9.50;99.90;;;;;;4971038;28;20623;-69
2022/12/22 15:55:00;;;;;;;3.33;1.40;;;9.50;99.90;;;;;;4969965;28;20208;-70
2022/12/22 16:00:02;;;;;;;5.35;1.60;;;9.40;99.90;;;;;;5358625;23;20227;-70
2022/12/22 16:02:29;;;;;;;4.70;1.90;;;9.40;99.90;;;;;;4971948;28;20230;-70
2022/12/22 16:04:56;;;;;;;2.20;1.45;;;9.30;99.90;;;;;;4973570;28;20567;-70
2022/12/22 16:07:23;;;;;;;4.22;1.70;;;9.30;99.90;;;;;;4966761;28;20888;-70
2022/12/22 16:09:51;;;;;;;3.55;1.98;;;9.30;99.90;;;;;;4950360;29;20215;-70
2022/12/22 16:12:18;;;;;;;3.50;1.40;;;9.30;99.90;;;;;;4951966;29;20566;-70
2022/12/22 16:14:48;;;;;;;6.25;1.60;;;9.30;99.90;;;;;;4951614;29;20219;-70
2022/12/22 16:17:18;;;;;;;3.88;1.33;;;9.30;99.90;;;;;;4951586;28;20708;-69
2022/12/22 16:19:45;;;;;;;4.63;1.40;;;9.30;99.90;;;;;;4951281;28;20290;-70
2022/12/22 16:22:12;;;;;;;2.05;1.45;;;9.30;99.90;;;;;;4951360;29;20229;-70
2022/12/22 16:24:42;;;;;;;3.30;1.45;;;9.20;99.90;;;;;;4951952;29;20208;-70
2022/12/22 16:27:11;;;;;;;5.60;1.65;;;9.20;99.90;;;;;;4952165;28;20216;-70
2022/12/22 16:29:38;;;;;;;8.15;1.85;;;9.20;99.90;;;;;;4950769;29;20208;-70
2022/12/22 16:32:16;;;;;;;2.13;1.52;;;9.20;99.90;;;;;;4948582;29;20204;-71
2022/12/22 16:34:43;;;;;;;2.67;1.65;;;9.20;99.90;;;;;;4951590;28;20238;-71
2022/12/22 16:37:09;;;;;;;2.75;1.75;;;9.30;99.90;;;;;;4952072;28;20205;-71
2022/12/22 16:39:36;;;;;;;3.50;1.80;;;9.20;99.90;;;;;;4951326;28;20212;-71
2022/12/22 16:42:03;;;;;;;1.70;1.08;;;9.20;99.90;;;;;;4951740;28;20715;-71
2022/12/22 16:44:31;;;;;;;2.97;1.40;;;9.10;99.90;;;;;;4958865;28;20680;-71
2022/12/22 16:46:58;;;;;;;6.05;2.38;;;9.10;99.90;;;;;;4966044;28;20576;-70
2022/12/22 16:49:26;;;;;;;6.05;1.70;;;9.10;99.90;;;;;;4970884;28;20211;-71
2022/12/22 16:51:54;;;;;;;7.90;2.00;;;9.10;99.90;;;;;;4970783;28;20215;-71
2022/12/22 16:54:21;;;;;;;3.30;1.42;;;9.10;99.90;;;;;;4964441;28;20203;-70
2022/12/22 16:56:50;;;;;;;8.77;2.50;;;9.20;99.90;;;;;;4951997;29;20217;-70
2022/12/22 16:59:17;;;;;;;7.80;2.00;;;9.20;99.90;;;;;;4950606;29;20213;-70
2022/12/22 17:01:50;;;;;;;3.03;1.92;;;9.20;99.90;;;;;;4951617;28;20246;-70